createdAt,value
2023-04-08T00:01:07.429Z,79.30
2023-04-08T00:04:29.872Z,79.10
2023-04-08T00:07:52.182Z,79.10
2023-04-08T00:11:14.405Z,79.20
2023-04-08T00:14:38.341Z,79.10
2023-04-08T00:18:01.138Z,79.20
2023-04-08T00:21:23.688Z,79.10
2023-04-08T00:24:46.099Z,79.10
2023-04-08T00:28:09.083Z,78.90
2023-04-08T00:31:31.779Z,79.00
2023-04-08T00:34:54.485Z,78.80
2023-04-08T00:38:16.684Z,78.80
2023-04-08T00:41:38.934Z,78.80
2023-04-08T00:45:01.189Z,78.80
2023-04-08T00:48:23.654Z,78.70
2023-04-08T00:51:45.946Z,78.70
2023-04-08T00:55:08.295Z,78.60
2023-04-08T00:58:30.950Z,78.60
2023-04-08T01:02:06.419Z,78.50
2023-04-08T01:06:13.255Z,78.60
2023-04-08T01:09:39.596Z,78.50
2023-04-08T01:13:08.508Z,78.50
2023-04-08T01:16:30.787Z,78.40
2023-04-08T01:19:57.113Z,78.40
2023-04-08T01:23:37.214Z,78.40
2023-04-08T01:27:01.748Z,78.40
2023-04-08T01:30:26.131Z,78.30
2023-04-08T01:33:50.404Z,78.30
2023-04-08T01:37:13.667Z,78.30
2023-04-08T01:40:38.024Z,78.30
2023-04-08T01:44:01.302Z,78.30
2023-04-08T01:47:26.160Z,78.20
2023-04-08T01:50:51.242Z,78.20
2023-04-08T01:54:13.553Z,78.10
2023-04-08T01:57:38.750Z,78.10
2023-04-08T02:01:01.593Z,78.10
2023-04-08T02:04:23.959Z,78.00
2023-04-08T02:07:48.286Z,78.00
2023-04-08T02:11:10.514Z,78.00
2023-04-08T02:14:32.898Z,78.00
2023-04-08T02:17:56.179Z,79.60
2023-04-08T02:21:22.723Z,78.40
2023-04-08T02:24:46.373Z,78.40
2023-04-08T02:28:11.289Z,78.30
2023-04-08T02:31:34.947Z,78.30
2023-04-08T02:34:59.660Z,78.20
2023-04-08T02:38:24.113Z,78.00
2023-04-08T02:41:46.580Z,78.10
2023-04-08T02:45:09.270Z,78.00
2023-04-08T02:48:31.871Z,77.90
2023-04-08T02:51:54.272Z,77.90
2023-04-08T02:55:16.580Z,77.90
2023-04-08T02:58:38.897Z,77.90
2023-04-08T03:02:01.144Z,77.90
2023-04-08T03:05:23.476Z,77.80
2023-04-08T03:08:45.872Z,77.80
2023-04-08T03:12:08.149Z,77.70
2023-04-08T03:15:30.361Z,77.70
2023-04-08T03:18:52.785Z,77.60
2023-04-08T03:22:15.202Z,77.60
2023-04-08T03:25:37.504Z,77.60
2023-04-08T03:28:59.721Z,77.60
2023-04-08T03:32:22.081Z,77.60
2023-04-08T03:35:44.348Z,77.60
2023-04-08T03:39:06.561Z,77.60
2023-04-08T03:42:28.822Z,77.50
2023-04-08T03:45:51.072Z,77.50
2023-04-08T03:49:13.330Z,77.60
2023-04-08T03:52:35.585Z,77.40
2023-04-08T03:55:57.875Z,77.40
2023-04-08T03:59:20.116Z,77.40
2023-04-08T04:02:42.511Z,77.40
2023-04-08T04:06:04.883Z,77.40
2023-04-08T04:09:27.312Z,77.40
2023-04-08T04:12:50.384Z,77.40
2023-04-08T04:16:12.692Z,77.30
2023-04-08T04:19:35.072Z,77.10
2023-04-08T04:22:57.429Z,77.10
2023-04-08T04:26:19.681Z,76.90
2023-04-08T04:29:41.931Z,77.80
2023-04-08T04:33:04.978Z,77.00
2023-04-08T04:36:27.464Z,77.00
2023-04-08T04:39:49.720Z,77.00
2023-04-08T04:43:11.974Z,77.00
2023-04-08T04:46:34.348Z,77.00
2023-04-08T04:49:56.589Z,77.00
2023-04-08T04:53:18.791Z,77.00
2023-04-08T04:56:41.743Z,76.80
2023-04-08T05:00:05.472Z,76.80
2023-04-08T05:03:28.176Z,76.90
2023-04-08T05:06:50.598Z,77.00
2023-04-08T05:10:12.804Z,76.80
2023-04-08T05:13:35.097Z,76.80
2023-04-08T05:16:57.572Z,76.80
2023-04-08T05:20:19.882Z,76.70
2023-04-08T05:23:42.074Z,76.70
2023-04-08T05:27:04.354Z,76.70
2023-04-08T05:30:27.071Z,76.60
2023-04-08T05:33:49.311Z,76.50
2023-04-08T05:37:11.581Z,76.40
2023-04-08T05:40:33.913Z,76.50
2023-04-08T05:43:56.217Z,76.40
2023-04-08T05:47:18.481Z,76.60
2023-04-08T05:50:40.753Z,76.50
2023-04-08T05:54:03.020Z,76.50
2023-04-08T05:57:25.451Z,76.40
2023-04-08T06:00:47.833Z,76.40
2023-04-08T06:04:10.226Z,76.40
2023-04-08T06:07:33.952Z,76.30
2023-04-08T06:10:56.184Z,76.40
2023-04-08T06:14:18.524Z,76.30
2023-04-08T06:17:40.777Z,76.40
2023-04-08T06:21:03.123Z,76.50
2023-04-08T06:24:27.387Z,76.60
2023-04-08T06:27:49.670Z,76.70
2023-04-08T06:31:12.070Z,76.80
2023-04-08T06:34:34.354Z,76.70
2023-04-08T06:37:56.509Z,76.60
2023-04-08T06:41:18.724Z,76.60
2023-04-08T06:44:40.922Z,76.50
2023-04-08T06:48:03.296Z,77.30
2023-04-08T06:51:25.744Z,76.30
2023-04-08T06:54:48.050Z,76.40
2023-04-08T06:58:10.451Z,76.00
2023-04-08T07:01:33.039Z,75.60
2023-04-08T07:04:55.345Z,75.80
2023-04-08T07:08:17.595Z,75.80
2023-04-08T07:11:39.849Z,75.70
2023-04-08T07:15:02.110Z,75.60
2023-04-08T07:18:24.402Z,75.50
2023-04-08T07:25:09.670Z,77.30
2023-04-08T07:28:32.348Z,76.20
2023-04-08T07:31:54.558Z,77.40
2023-04-08T07:35:24.075Z,77.40
2023-04-08T07:38:46.610Z,76.70
2023-04-08T07:42:09.002Z,76.80
2023-04-08T07:45:31.265Z,78.30
2023-04-08T07:48:53.491Z,79.00
2023-04-08T07:52:15.825Z,77.00
2023-04-08T07:55:40.379Z,80.30
2023-04-08T07:59:02.594Z,80.10
2023-04-08T08:02:25.036Z,80.80
2023-04-08T08:05:47.319Z,79.70
2023-04-08T08:09:09.768Z,79.10
2023-04-08T08:12:32.049Z,78.50
2023-04-08T08:15:54.307Z,71.70
2023-04-08T08:19:16.571Z,70.50
2023-04-08T08:22:47.311Z,70.80
2023-04-08T08:26:16.722Z,76.90
2023-04-08T08:29:39.057Z,77.70
2023-04-08T08:33:01.304Z,78.00
2023-04-08T08:36:23.651Z,78.00
2023-04-08T08:39:46.088Z,77.50
2023-04-08T08:43:09.929Z,77.30
2023-04-08T08:46:32.368Z,73.60
2023-04-08T08:49:54.730Z,71.10
2023-04-08T08:53:17.357Z,71.90
2023-04-08T08:56:39.772Z,71.70
2023-04-08T09:00:02.130Z,72.40
2023-04-08T09:03:28.889Z,72.10
2023-04-08T09:07:10.633Z,72.10
2023-04-08T09:10:32.923Z,72.40
2023-04-08T09:13:57.194Z,72.70
2023-04-08T09:17:34.025Z,72.70
2023-04-08T09:20:56.348Z,73.00
2023-04-08T09:24:29.936Z,73.00
2023-04-08T09:27:53.124Z,73.00
2023-04-08T09:31:29.764Z,73.10
2023-04-08T09:34:52.163Z,73.30
2023-04-08T09:38:14.475Z,73.10
2023-04-08T09:41:38.368Z,72.70
2023-04-08T09:45:04.005Z,72.70
2023-04-08T09:48:32.905Z,72.80
2023-04-08T09:52:09.982Z,72.80
2023-04-08T09:55:37.344Z,73.60
2023-04-08T09:59:02.746Z,72.70
2023-04-08T10:02:33.490Z,72.40
2023-04-08T10:05:59.854Z,72.20
2023-04-08T10:09:22.961Z,71.90
2023-04-08T10:12:45.505Z,71.20
2023-04-08T10:16:19.970Z,70.80
2023-04-08T10:19:43.128Z,70.60
2023-04-08T10:23:09.801Z,71.00
2023-04-08T10:26:37.873Z,70.30
2023-04-08T10:30:00.110Z,69.80
2023-04-08T10:33:40.084Z,70.20
2023-04-08T10:37:03.758Z,69.90
2023-04-08T10:40:26.398Z,69.70
2023-04-08T10:43:48.873Z,69.50
2023-04-08T10:47:11.379Z,68.50
2023-04-08T10:50:33.610Z,68.50
2023-04-08T10:53:55.951Z,68.60
2023-04-08T10:57:24.950Z,67.40
2023-04-08T11:00:47.274Z,67.20
2023-04-08T11:04:20.761Z,65.10
2023-04-08T11:07:43.221Z,64.70
2023-04-08T11:11:10.644Z,64.70
2023-04-08T11:14:33.242Z,62.70
2023-04-08T11:17:56.526Z,63.60
2023-04-08T11:21:18.909Z,63.80
2023-04-08T11:24:41.262Z,64.80
2023-04-08T11:28:04.543Z,65.10
2023-04-08T11:31:27.371Z,63.70
2023-04-08T11:34:50.180Z,64.30
2023-04-08T11:38:12.674Z,65.10
2023-04-08T11:41:42.049Z,64.80
2023-04-08T11:45:14.682Z,64.70
2023-04-08T11:48:38.651Z,64.20
2023-04-08T11:52:01.318Z,64.50
2023-04-08T11:55:27.740Z,65.40
2023-04-08T11:58:50.855Z,64.40
2023-04-08T12:02:13.144Z,64.80
2023-04-08T12:05:36.341Z,64.90
2023-04-08T12:08:59.875Z,65.00
2023-04-08T12:12:22.073Z,64.90
2023-04-08T12:15:45.014Z,65.60
2023-04-08T12:19:07.304Z,63.80
2023-04-08T12:22:29.524Z,63.40
2023-04-08T12:25:51.866Z,61.70
2023-04-08T12:29:17.290Z,63.50
2023-04-08T12:32:39.585Z,64.70
2023-04-08T12:36:01.896Z,64.20
2023-04-08T12:39:24.148Z,64.20
2023-04-08T12:42:46.421Z,64.80
2023-04-08T12:46:08.733Z,65.40
2023-04-08T12:49:39.660Z,65.00
2023-04-08T12:53:11.180Z,65.50
2023-04-08T12:56:34.007Z,65.00
2023-04-08T12:59:56.195Z,65.20
2023-04-08T13:03:18.552Z,65.30
2023-04-08T13:06:41.046Z,65.60
2023-04-08T13:10:04.375Z,66.00
2023-04-08T13:13:26.637Z,65.60
2023-04-08T13:16:48.861Z,65.40
2023-04-08T13:20:11.737Z,65.50
2023-04-08T13:23:34.329Z,64.90
2023-04-08T13:26:57.490Z,64.30
2023-04-08T13:30:19.803Z,65.20
2023-04-08T13:33:42.081Z,63.90
2023-04-08T13:37:04.538Z,64.30
2023-04-08T13:40:27.971Z,64.00
2023-04-08T13:43:50.515Z,63.40
2023-04-08T13:47:13.067Z,62.40
2023-04-08T13:50:35.439Z,62.80
2023-04-08T13:53:57.762Z,62.20
2023-04-08T13:57:20.001Z,61.90
2023-04-08T14:00:42.214Z,61.90
2023-04-08T14:04:04.524Z,62.50
2023-04-08T14:07:26.777Z,62.80
2023-04-08T14:10:49.004Z,63.20
2023-04-08T14:14:11.330Z,63.70
2023-04-08T14:17:35.015Z,63.90
2023-04-08T14:20:57.440Z,64.00
2023-04-08T14:24:20.015Z,63.40
2023-04-08T14:27:56.717Z,62.20
2023-04-08T14:31:20.040Z,63.50
2023-04-08T14:34:42.292Z,64.20
2023-04-08T14:38:04.537Z,64.50
2023-04-08T14:41:27.222Z,64.30
2023-04-08T14:44:49.695Z,63.70
2023-04-08T14:48:11.944Z,63.50
2023-04-08T14:51:34.410Z,64.40
2023-04-08T14:54:56.757Z,64.80
2023-04-08T14:58:20.001Z,63.90
2023-04-08T15:01:42.422Z,64.10
2023-04-08T15:05:05.114Z,64.30
2023-04-08T15:08:27.481Z,63.90
2023-04-08T15:11:49.697Z,63.90
2023-04-08T15:15:11.894Z,63.00
2023-04-08T15:18:34.111Z,63.50
2023-04-08T15:21:56.309Z,64.10
2023-04-08T15:25:18.634Z,62.80
2023-04-08T15:28:41.497Z,61.90
2023-04-08T15:32:03.774Z,62.50
2023-04-08T15:35:27.234Z,63.20
2023-04-08T15:38:49.838Z,63.10
2023-04-08T15:42:12.399Z,63.30
2023-04-08T15:45:34.624Z,63.00
2023-04-08T15:48:56.921Z,63.40
2023-04-08T15:52:19.458Z,63.10
2023-04-08T15:55:42.063Z,62.90
2023-04-08T15:59:04.319Z,63.20
2023-04-08T16:02:26.686Z,63.40
2023-04-08T16:05:49.602Z,63.30
2023-04-08T16:09:11.943Z,64.50
2023-04-08T16:12:34.623Z,64.80
2023-04-08T16:15:58.509Z,64.20
2023-04-08T16:19:22.213Z,63.20
2023-04-08T16:22:44.522Z,63.10
2023-04-08T16:26:08.649Z,63.50
2023-04-08T16:29:31.418Z,63.10
2023-04-08T16:32:53.938Z,63.30
2023-04-08T16:36:16.362Z,63.40
2023-04-08T16:39:38.781Z,65.80
2023-04-08T16:43:01.682Z,67.70
2023-04-08T16:46:24.274Z,69.00
2023-04-08T16:49:46.529Z,68.60
2023-04-08T16:53:09.125Z,68.80
2023-04-08T16:56:31.392Z,68.90
2023-04-08T16:59:53.780Z,69.40
2023-04-08T17:03:16.935Z,70.30
2023-04-08T17:06:40.993Z,65.20
2023-04-08T17:10:03.926Z,65.30
2023-04-08T17:13:29.453Z,65.60
2023-04-08T17:16:51.844Z,65.70
2023-04-08T17:20:14.278Z,65.60
2023-04-08T17:23:36.592Z,65.90
2023-04-08T17:26:58.949Z,66.00
2023-04-08T17:30:21.466Z,66.70
2023-04-08T17:33:43.716Z,68.10
2023-04-08T17:37:05.906Z,68.00
2023-04-08T17:40:28.273Z,68.00
2023-04-08T17:43:50.931Z,69.50
2023-04-08T17:47:13.356Z,69.60
2023-04-08T17:50:36.121Z,69.60
2023-04-08T17:53:58.868Z,69.20
2023-04-08T17:57:21.442Z,70.40
2023-04-08T18:00:43.732Z,71.00
2023-04-08T18:04:08.307Z,72.50
2023-04-08T18:07:30.785Z,74.30
2023-04-08T18:10:53.049Z,74.80
2023-04-08T18:14:15.451Z,76.10
2023-04-08T18:17:37.786Z,76.80
2023-04-08T18:21:00.058Z,77.70
2023-04-08T18:24:22.554Z,76.50
2023-04-08T18:27:44.872Z,76.40
2023-04-08T18:31:07.780Z,76.10
2023-04-08T18:34:31.956Z,76.20
2023-04-08T18:37:54.218Z,76.70
2023-04-08T18:41:17.815Z,75.70
2023-04-08T18:44:40.174Z,75.50
2023-04-08T18:48:02.489Z,76.60
2023-04-08T18:51:24.667Z,76.10
2023-04-08T18:54:48.993Z,76.50
2023-04-08T18:58:11.682Z,76.30
2023-04-08T19:01:36.130Z,76.20
2023-04-08T19:04:58.571Z,76.20
2023-04-08T19:08:20.827Z,75.50
2023-04-08T19:11:43.015Z,76.10
2023-04-08T19:15:05.838Z,75.20
2023-04-08T19:18:28.109Z,75.70
2023-04-08T19:21:50.336Z,75.70
2023-04-08T19:25:12.559Z,76.00
2023-04-08T19:28:35.302Z,75.20
2023-04-08T19:31:59.375Z,74.70
2023-04-08T19:35:21.712Z,75.50
2023-04-08T19:38:44.061Z,75.80
2023-04-08T19:42:06.411Z,75.10
2023-04-08T19:45:28.590Z,74.70
2023-04-08T19:48:50.865Z,75.60
2023-04-08T19:52:13.089Z,75.10
2023-04-08T19:55:37.383Z,75.30
2023-04-08T19:59:01.420Z,75.50
2023-04-08T20:02:25.282Z,74.80
2023-04-08T20:05:47.573Z,74.70
2023-04-08T20:09:09.891Z,74.40
2023-04-08T20:12:32.253Z,74.50
2023-04-08T20:15:54.605Z,74.50
2023-04-08T20:19:16.990Z,74.70
2023-04-08T20:22:39.307Z,75.00
2023-04-08T20:26:02.078Z,74.80
2023-04-08T20:29:24.299Z,74.80
2023-04-08T20:32:46.636Z,74.70
2023-04-08T20:36:08.994Z,74.90
2023-04-08T20:39:31.822Z,74.90
2023-04-08T20:42:54.056Z,74.70
2023-04-08T20:46:16.402Z,74.50
2023-04-08T20:49:41.105Z,74.70
2023-04-08T20:53:03.996Z,74.40
2023-04-08T20:56:26.557Z,74.40
2023-04-08T20:59:48.827Z,74.30
2023-04-08T21:03:11.185Z,74.20
2023-04-08T21:06:33.527Z,74.20
2023-04-08T21:09:55.844Z,74.40
2023-04-08T21:13:18.021Z,74.40
2023-04-08T21:16:40.315Z,74.20
2023-04-08T21:20:03.055Z,74.30
2023-04-08T21:23:25.832Z,74.40
2023-04-08T21:26:48.092Z,74.50
2023-04-08T21:30:10.746Z,74.50
2023-04-08T21:33:33.103Z,74.40
2023-04-08T21:36:55.688Z,74.40
2023-04-08T21:40:18.139Z,75.20
2023-04-08T21:43:40.902Z,75.20
2023-04-08T21:47:03.123Z,74.70
2023-04-08T21:50:25.488Z,75.10
2023-04-08T21:53:47.717Z,75.30
2023-04-08T21:57:10.962Z,75.20
2023-04-08T22:00:33.876Z,75.20
2023-04-08T22:03:56.787Z,75.30
2023-04-08T22:07:19.167Z,75.30
2023-04-08T22:10:41.501Z,75.20
2023-04-08T22:14:03.741Z,75.10
2023-04-08T22:17:26.402Z,75.10
2023-04-08T22:20:48.649Z,75.10
2023-04-08T22:24:10.896Z,75.00
2023-04-08T22:27:33.395Z,75.00
2023-04-08T22:30:55.882Z,75.00
2023-04-08T22:34:18.127Z,75.00
2023-04-08T22:37:41.510Z,75.10
2023-04-08T22:41:03.814Z,74.90
2023-04-08T22:44:26.344Z,75.00
2023-04-08T22:47:48.662Z,75.10
2023-04-08T22:51:11.368Z,75.00
2023-04-08T22:54:33.608Z,75.10
2023-04-08T22:57:56.013Z,75.10
2023-04-08T23:01:20.902Z,75.20
2023-04-08T23:04:43.273Z,75.10
2023-04-08T23:08:05.637Z,75.00
2023-04-08T23:11:28.069Z,74.90
2023-04-08T23:14:50.450Z,75.00
2023-04-08T23:18:12.758Z,75.00
2023-04-08T23:21:34.929Z,74.90
2023-04-08T23:24:57.149Z,75.00
2023-04-08T23:28:19.417Z,74.90
2023-04-08T23:31:41.778Z,74.90
2023-04-08T23:35:04.204Z,75.00
2023-04-08T23:38:26.504Z,74.90
2023-04-08T23:41:48.686Z,74.90
2023-04-08T23:45:11.171Z,75.10
2023-04-08T23:48:33.374Z,74.90
2023-04-08T23:51:55.734Z,74.80
2023-04-08T23:55:18.066Z,74.80
2023-04-08T23:58:40.376Z,75.00
